Time;durP1;ratioP1;P1;durP2;ratioP2;P2;SDS_P1;SDS_P2;PMS_P1;PMS_P2;Temp;Humidity;BMP_temperature;BMP_pressure;BME280_temperature;BME280_humidity;BME280_pressure;Samples;Min_cycle;Max_cycle;Signal;HPM_P1;HPM_P2
2021/08/03 00:00:51;;;;;;;0.77;0.55;;;15.50;99.90;;;;;;4981356;28;20045;-66
2021/08/03 00:03:29;;;;;;;0.80;0.80;;;15.40;99.90;;;;;;4985481;28;20097;-66
2021/08/03 00:05:57;;;;;;;0.80;0.75;;;15.40;99.90;;;;;;4996608;28;20069;-66
2021/08/03 00:08:28;;;;;;;0.63;0.45;;;15.40;99.90;;;;;;4972451;28;20070;-66
2021/08/03 00:10:56;;;;;;;0.50;0.50;;;15.40;99.90;;;;;;4981565;28;20031;-65
2021/08/03 00:13:26;;;;;;;0.93;0.93;;;15.40;99.90;;;;;;4972562;28;20039;-66
2021/08/03 00:15:57;;;;;;;1.52;0.68;;;15.40;99.90;;;;;;4977883;28;20137;-67
2021/08/03 00:18:24;;;;;;;0.70;0.70;;;15.40;99.90;;;;;;4976697;28;20042;-65
2021/08/03 00:20:51;;;;;;;0.57;0.52;;;15.40;99.90;;;;;;4982897;28;20038;-66
2021/08/03 00:23:22;;;;;;;1.77;0.63;;;15.30;99.90;;;;;;4981412;28;20464;-65
2021/08/03 00:25:51;;;;;;;0.40;0.40;;;15.40;99.90;;;;;;4971530;28;20478;-65
2021/08/03 00:28:19;;;;;;;1.60;0.77;;;15.30;99.90;;;;;;4977235;28;20054;-67
2021/08/03 00:30:48;;;;;;;0.38;0.30;;;15.30;99.90;;;;;;4983549;28;20638;-66
2021/08/03 00:33:16;;;;;;;0.45;0.45;;;15.40;99.90;;;;;;4980730;28;20053;-65
2021/08/03 00:35:43;;;;;;;0.40;0.38;;;15.30;99.90;;;;;;4981338;28;20114;-65
2021/08/03 00:38:11;;;;;;;1.00;1.00;;;15.30;99.90;;;;;;4965769;28;20046;-66
2021/08/03 00:41:04;;;;;;;0.57;0.50;;;15.30;99.90;;;;;;4980827;28;20034;-66
2021/08/03 00:43:31;;;;;;;1.05;0.50;;;15.30;99.90;;;;;;4980870;28;20137;-65
2021/08/03 00:45:58;;;;;;;0.55;0.52;;;15.40;99.90;;;;;;4978658;28;20058;-67
2021/08/03 00:48:26;;;;;;;0.50;0.50;;;15.30;99.90;;;;;;4982208;28;20035;-68
2021/08/03 00:50:53;;;;;;;1.27;0.88;;;15.30;99.90;;;;;;4981124;28;20550;-68
2021/08/03 00:53:20;;;;;;;2.40;0.80;;;15.30;99.90;;;;;;4981259;28;20046;-67
2021/08/03 00:55:48;;;;;;;2.67;1.00;;;15.40;99.90;;;;;;5001198;28;20156;-66
2021/08/03 00:58:16;;;;;;;0.80;0.68;;;15.40;99.90;;;;;;4980419;28;20054;-65
2021/08/03 01:00:44;;;;;;;0.75;0.52;;;15.40;99.90;;;;;;4986215;28;20155;-65
2021/08/03 01:03:12;;;;;;;0.50;0.50;;;15.40;99.90;;;;;;4986610;28;20468;-68
2021/08/03 01:06:03;;;;;;;1.23;0.65;;;15.40;99.90;;;;;;4985568;28;20066;-65
2021/08/03 01:09:03;;;;;;;1.58;0.75;;;15.40;99.90;;;;;;4974938;28;20127;-66
2021/08/03 01:12:19;;;;;;;0.32;0.30;;;15.50;99.90;;;;;;4997771;28;20537;-68
2021/08/03 01:14:58;;;;;;;1.02;0.50;;;15.50;99.90;;;;;;4941024;29;20457;-67
2021/08/03 01:17:41;;;;;;;1.92;0.60;;;15.50;99.90;;;;;;4974968;28;20065;-68
2021/08/03 01:20:27;;;;;;;2.38;0.90;;;15.50;99.90;;;;;;4999996;28;20042;-66
2021/08/03 01:23:14;;;;;;;0.73;0.60;;;15.50;99.90;;;;;;4999795;28;20068;-65
2021/08/03 01:26:07;;;;;;;1.08;0.40;;;15.50;99.90;;;;;;4996780;28;20045;-66
2021/08/03 01:28:44;;;;;;;0.68;0.47;;;15.50;99.90;;;;;;4983354;28;20055;-65
2021/08/03 01:31:21;;;;;;;1.42;0.40;;;15.50;99.90;;;;;;4985742;28;20047;-66
2021/08/03 01:34:15;;;;;;;4.68;0.88;;;15.50;99.90;;;;;;4986998;28;20081;-67
2021/08/03 01:36:55;;;;;;;1.15;1.08;;;15.50;99.90;;;;;;4981103;28;20048;-69
2021/08/03 01:39:36;;;;;;;1.35;0.70;;;15.50;99.90;;;;;;4974053;28;20050;-65
2021/08/03 01:42:05;;;;;;;;;;;15.40;99.90;;;;;;4988601;28;20157;-70
2021/08/03 01:44:35;;;;;;;3.53;0.63;;;15.40;99.90;;;;;;4978250;28;19957;-67
2021/08/03 01:47:06;;;;;;;0.57;0.57;;;15.40;99.90;;;;;;4982131;28;20065;-69
2021/08/03 01:49:40;;;;;;;0.73;0.73;;;15.40;99.90;;;;;;4976581;28;20125;-65
2021/08/03 01:52:12;;;;;;;0.80;0.70;;;15.40;99.90;;;;;;4981154;28;20045;-65
2021/08/03 01:54:40;;;;;;;1.80;0.40;;;15.50;99.90;;;;;;4983554;28;20080;-66
2021/08/03 01:57:08;;;;;;;1.10;0.60;;;15.50;99.90;;;;;;4981046;28;20413;-68
2021/08/03 01:59:35;;;;;;;3.25;0.90;;;15.50;99.90;;;;;;4984412;28;20757;-64
2021/08/03 02:02:03;;;;;;;2.05;0.30;;;15.40;99.90;;;;;;4981915;28;20046;-69
2021/08/03 02:04:33;;;;;;;0.50;0.50;;;15.40;99.90;;;;;;4982933;28;20065;-66
2021/08/03 02:07:01;;;;;;;0.60;0.20;;;15.40;99.90;;;;;;4984189;28;20039;-63
2021/08/03 02:09:29;;;;;;;0.28;0.20;;;15.40;99.90;;;;;;4986620;28;20050;-66
2021/08/03 02:11:57;;;;;;;0.60;0.40;;;15.40;99.90;;;;;;4984395;28;20084;-68
2021/08/03 02:14:25;;;;;;;2.42;0.95;;;15.40;99.90;;;;;;4983370;28;20042;-65
2021/08/03 02:17:08;;;;;;;0.80;0.50;;;15.40;99.90;;;;;;4982130;28;20054;-65
2021/08/03 02:19:45;;;;;;;0.52;0.43;;;15.40;99.90;;;;;;4983523;28;20042;-67
2021/08/03 02:22:13;;;;;;;1.95;0.70;;;15.40;99.90;;;;;;4980466;28;20089;-68
2021/08/03 02:24:51;;;;;;;0.68;0.68;;;15.40;99.90;;;;;;4974584;28;20073;-65
2021/08/03 02:27:22;;;;;;;0.68;0.40;;;15.40;99.90;;;;;;4982384;28;20056;-64
2021/08/03 02:29:49;;;;;;;0.40;0.40;;;15.40;99.90;;;;;;4981934;28;20130;-69
2021/08/03 02:32:38;;;;;;;2.83;0.60;;;15.40;99.90;;;;;;4981300;28;20141;-65
2021/08/03 02:35:15;;;;;;;6.03;2.05;;;15.30;99.90;;;;;;4981558;28;20117;-70
2021/08/03 02:37:52;;;;;;;1.38;0.45;;;15.30;99.90;;;;;;4980618;28;20133;-65
2021/08/03 02:40:20;;;;;;;0.43;0.40;;;15.30;99.90;;;;;;4976945;28;20090;-64
2021/08/03 02:43:01;;;;;;;2.60;0.30;;;15.30;99.90;;;;;;4980997;28;20420;-68
2021/08/03 02:45:29;;;;;;;1.48;0.57;;;15.40;99.90;;;;;;4982473;28;20090;-64
2021/08/03 02:48:09;;;;;;;0.40;0.40;;;15.30;99.90;;;;;;4981154;28;20069;-64
2021/08/03 02:50:37;;;;;;;0.50;0.40;;;15.30;99.90;;;;;;4982234;28;20106;-66
2021/08/03 02:53:11;;;;;;;0.52;0.30;;;15.30;99.90;;;;;;4981852;28;20093;-66
2021/08/03 02:55:51;;;;;;;0.82;0.47;;;15.30;99.90;;;;;;4981548;28;20058;-68
2021/08/03 02:58:25;;;;;;;1.07;0.70;;;15.30;99.90;;;;;;4981483;28;20050;-64
2021/08/03 03:00:53;;;;;;;2.15;0.50;;;15.30;99.90;;;;;;4982593;28;20034;-68
2021/08/03 03:03:24;;;;;;;1.55;0.40;;;15.30;99.90;;;;;;4975606;28;20042;-66
2021/08/03 03:05:59;;;;;;;1.98;0.75;;;15.30;99.90;;;;;;4983697;28;20121;-68
2021/08/03 03:08:30;;;;;;;2.20;0.50;;;15.30;99.90;;;;;;4981445;28;20120;-65
2021/08/03 03:11:02;;;;;;;1.02;0.30;;;15.30;99.90;;;;;;4979758;28;20100;-66
2021/08/03 03:13:37;;;;;;;3.17;0.38;;;15.20;99.90;;;;;;4980342;28;20047;-67
2021/08/03 03:16:06;;;;;;;2.63;0.45;;;15.20;99.90;;;;;;4980778;28;20803;-64
2021/08/03 03:18:34;;;;;;;0.65;0.40;;;15.20;99.90;;;;;;4980226;28;20085;-66
2021/08/03 03:21:04;;;;;;;0.35;0.30;;;15.10;99.90;;;;;;4969941;28;20098;-69
2021/08/03 03:23:35;;;;;;;0.52;0.30;;;15.10;99.90;;;;;;4974851;28;20460;-68
2021/08/03 03:26:04;;;;;;;0.40;0.40;;;14.90;99.90;;;;;;4983079;28;20046;-68
2021/08/03 03:28:38;;;;;;;3.35;0.88;;;14.90;99.90;;;;;;4967629;28;20035;-65
2021/08/03 03:31:07;;;;;;;0.73;0.55;;;14.70;99.90;;;;;;4983289;28;20050;-65
2021/08/03 03:33:38;;;;;;;2.20;2.03;;;14.60;99.90;;;;;;4979927;28;20154;-67
2021/08/03 03:36:07;;;;;;;3.10;0.77;;;14.50;99.90;;;;;;4982968;28;20137;-65
2021/08/03 03:38:38;;;;;;;0.55;0.30;;;14.40;99.90;;;;;;4980024;28;20114;-64
2021/08/03 03:41:06;;;;;;;1.48;0.22;;;14.40;99.90;;;;;;4981116;28;20719;-65
2021/08/03 03:43:34;;;;;;;1.27;0.57;;;14.40;99.90;;;;;;4981482;28;20105;-66
2021/08/03 03:46:09;;;;;;;1.02;0.40;;;14.30;99.90;;;;;;4983091;28;20050;-68
2021/08/03 03:48:44;;;;;;;0.88;0.63;;;14.30;99.90;;;;;;4979657;28;20046;-64
2021/08/03 03:51:17;;;;;;;0.77;0.60;;;14.30;99.90;;;;;;4982145;28;20547;-64
2021/08/03 03:53:58;;;;;;;1.52;0.50;;;14.20;99.90;;;;;;4984537;28;20050;-64
2021/08/03 03:56:30;;;;;;;1.40;0.50;;;14.20;99.90;;;;;;4977244;28;20070;-63
2021/08/03 03:58:59;;;;;;;2.17;0.60;;;14.20;99.90;;;;;;4983988;28;20112;-66
2021/08/03 04:01:28;;;;;;;0.43;0.43;;;14.20;99.90;;;;;;4968459;28;20043;-64
2021/08/03 04:03:59;;;;;;;0.55;0.45;;;14.20;99.90;;;;;;4976599;28;20531;-68
2021/08/03 04:06:26;;;;;;;1.85;0.45;;;14.20;99.90;;;;;;4978876;28;20046;-64
2021/08/03 04:08:54;;;;;;;0.50;0.50;;;14.30;99.90;;;;;;4968197;28;20046;-68
2021/08/03 04:11:21;;;;;;;0.60;0.60;;;14.30;99.90;;;;;;4972343;28;20046;-67
2021/08/03 04:13:54;;;;;;;0.40;0.32;;;14.30;99.90;;;;;;4979148;28;20042;-66
2021/08/03 04:16:23;;;;;;;1.55;0.68;;;14.30;99.90;;;;;;4980597;28;20130;-66
2021/08/03 04:18:51;;;;;;;0.50;0.22;;;14.20;99.90;;;;;;4982306;28;20138;-66
2021/08/03 04:21:17;;;;;;;1.70;0.50;;;14.20;99.90;;;;;;4980609;28;20428;-66
2021/08/03 04:23:44;;;;;;;2.03;1.83;;;14.20;99.90;;;;;;4979292;28;20327;-64
2021/08/03 04:26:11;;;;;;;0.68;0.40;;;14.20;99.90;;;;;;4978240;28;20361;-65
2021/08/03 04:28:38;;;;;;;0.68;0.47;;;14.30;99.90;;;;;;4981282;28;20043;-64
2021/08/03 04:31:05;;;;;;;1.42;0.75;;;14.40;99.90;;;;;;4982169;28;20053;-65
2021/08/03 04:33:32;;;;;;;0.32;0.30;;;14.40;99.90;;;;;;4985888;28;20046;-65
2021/08/03 04:35:59;;;;;;;0.57;0.57;;;14.50;99.90;;;;;;4983326;28;20054;-65
2021/08/03 04:38:26;;;;;;;0.70;0.50;;;14.50;99.90;;;;;;4986507;28;20116;-66
2021/08/03 04:40:53;;;;;;;0.43;0.20;;;14.50;99.90;;;;;;4984225;28;20697;-67
2021/08/03 04:43:20;;;;;;;0.40;0.40;;;14.60;99.90;;;;;;4982787;28;20049;-67
2021/08/03 04:45:47;;;;;;;3.72;0.55;;;14.70;99.90;;;;;;4985550;28;20112;-66
2021/08/03 04:48:14;;;;;;;1.27;0.80;;;14.70;99.90;;;;;;4969159;28;20460;-64
2021/08/03 04:50:41;;;;;;;0.55;0.55;;;14.70;99.90;;;;;;4986002;28;20678;-65
2021/08/03 04:53:08;;;;;;;1.52;0.55;;;14.80;99.90;;;;;;4984048;28;20034;-65
2021/08/03 04:55:35;;;;;;;0.40;0.40;;;14.80;99.90;;;;;;4983449;28;20149;-65
2021/08/03 04:58:02;;;;;;;0.40;0.32;;;14.80;99.90;;;;;;4983130;28;20046;-67
2021/08/03 05:00:29;;;;;;;0.73;0.47;;;14.80;99.90;;;;;;4982915;28;20046;-65
2021/08/03 05:02:56;;;;;;;0.90;0.50;;;14.80;99.90;;;;;;4970098;28;20057;-67
2021/08/03 05:05:27;;;;;;;1.55;0.38;;;14.90;99.90;;;;;;4986174;28;20530;-66
2021/08/03 05:07:58;;;;;;;0.45;0.45;;;14.90;99.90;;;;;;4984117;28;20043;-66
2021/08/03 05:10:28;;;;;;;0.52;0.47;;;14.90;99.90;;;;;;4983019;28;20081;-66
2021/08/03 05:12:56;;;;;;;0.30;0.30;;;14.90;99.90;;;;;;4984458;28;20109;-67
2021/08/03 05:15:23;;;;;;;0.50;0.40;;;14.90;99.90;;;;;;4984868;28;20121;-66
2021/08/03 05:17:51;;;;;;;0.43;0.43;;;15.00;99.90;;;;;;4987196;28;20439;-66
2021/08/03 05:20:18;;;;;;;0.95;0.70;;;15.00;99.90;;;;;;4997132;28;20042;-65
2021/08/03 05:22:46;;;;;;;0.30;0.20;;;15.00;99.90;;;;;;4985706;28;20097;-65
2021/08/03 05:25:13;;;;;;;0.77;0.40;;;15.00;99.90;;;;;;4984539;28;20050;-65
2021/08/03 05:27:40;;;;;;;0.95;0.50;;;15.00;99.90;;;;;;4983556;28;20746;-63
2021/08/03 05:30:08;;;;;;;2.42;0.60;;;15.00;99.90;;;;;;4983557;28;20042;-66
2021/08/03 05:32:35;;;;;;;1.17;0.43;;;15.00;99.90;;;;;;4981227;28;20701;-65
2021/08/03 05:35:07;;;;;;;0.90;0.47;;;15.00;99.90;;;;;;4985438;28;20456;-66
2021/08/03 05:37:35;;;;;;;1.13;0.38;;;15.00;99.90;;;;;;4983747;28;20116;-66
2021/08/03 05:40:08;;;;;;;0.52;0.20;;;15.00;99.90;;;;;;4967570;28;20038;-69
2021/08/03 05:42:39;;;;;;;0.90;0.30;;;15.00;99.90;;;;;;4979284;28;20041;-67
2021/08/03 05:45:07;;;;;;;0.40;0.35;;;15.00;99.90;;;;;;4985280;28;20475;-68
2021/08/03 05:47:34;;;;;;;0.65;0.45;;;15.10;99.90;;;;;;4985459;28;20062;-65
2021/08/03 05:50:03;;;;;;;1.40;0.57;;;15.20;99.90;;;;;;4987073;28;20065;-68
2021/08/03 05:52:30;;;;;;;1.85;0.98;;;15.10;99.90;;;;;;4980213;28;20115;-69
2021/08/03 05:54:57;;;;;;;0.50;0.50;;;15.20;99.90;;;;;;4985524;28;20081;-65
2021/08/03 05:57:25;;;;;;;0.32;0.32;;;15.20;99.90;;;;;;4981790;28;20047;-65
2021/08/03 05:59:52;;;;;;;1.05;0.68;;;15.20;99.90;;;;;;4987397;28;20055;-66
2021/08/03 06:02:19;;;;;;;1.27;0.60;;;15.30;99.90;;;;;;4979617;28;20050;-69
2021/08/03 06:04:46;;;;;;;1.20;0.57;;;15.30;99.90;;;;;;4972218;28;20141;-65
2021/08/03 06:07:15;;;;;;;0.30;0.30;;;15.30;99.90;;;;;;4979016;28;20164;-66
2021/08/03 06:09:43;;;;;;;1.90;0.68;;;15.40;99.90;;;;;;4985039;28;20057;-66
2021/08/03 06:12:10;;;;;;;0.60;0.60;;;15.40;99.90;;;;;;4967685;28;20055;-66
2021/08/03 06:14:43;;;;;;;0.63;0.40;;;15.50;99.90;;;;;;4983121;28;20050;-65
2021/08/03 06:17:14;;;;;;;0.73;0.60;;;15.50;99.90;;;;;;4979226;28;20055;-64
2021/08/03 06:19:49;;;;;;;1.13;0.47;;;15.50;99.90;;;;;;4976060;28;20170;-66
2021/08/03 06:22:18;;;;;;;0.50;0.40;;;15.60;99.90;;;;;;4984276;28;20069;-64
2021/08/03 06:24:47;;;;;;;2.20;0.60;;;15.50;99.90;;;;;;4982545;28;20042;-66
2021/08/03 06:27:18;;;;;;;1.08;0.47;;;15.60;99.90;;;;;;4982184;28;20038;-65
2021/08/03 06:29:45;;;;;;;0.20;0.20;;;15.60;99.90;;;;;;4985915;28;20046;-65
2021/08/03 06:32:13;;;;;;;2.42;0.55;;;15.70;99.90;;;;;;4981418;28;20101;-67
2021/08/03 06:34:43;;;;;;;1.55;0.47;;;15.60;99.90;;;;;;4985316;28;20096;-66
2021/08/03 06:37:12;;;;;;;0.52;0.30;;;15.60;99.90;;;;;;4980254;28;20054;-65
2021/08/03 06:39:40;;;;;;;0.77;0.30;;;15.70;99.90;;;;;;4984659;28;20408;-63
2021/08/03 06:42:26;;;;;;;1.55;0.30;;;15.70;99.90;;;;;;4983574;28;20388;-65
2021/08/03 06:45:02;;;;;;;2.08;0.30;;;15.80;99.90;;;;;;4983298;28;20115;-68
2021/08/03 06:47:52;;;;;;;0.55;0.30;;;15.80;99.90;;;;;;4984686;28;20050;-64
2021/08/03 06:50:23;;;;;;;1.20;0.20;;;15.90;99.90;;;;;;4979314;28;20611;-65
2021/08/03 06:52:50;;;;;;;2.65;0.45;;;15.90;99.90;;;;;;4983572;28;20257;-65
2021/08/03 06:55:22;;;;;;;0.80;0.40;;;15.90;99.90;;;;;;4983128;28;20042;-67
2021/08/03 06:57:53;;;;;;;0.30;0.30;;;15.90;99.90;;;;;;4983701;28;20069;-65
2021/08/03 07:00:21;;;;;;;0.85;0.30;;;16.00;99.90;;;;;;4981601;28;20050;-65
2021/08/03 07:02:49;;;;;;;0.32;0.32;;;16.00;99.90;;;;;;4984528;28;20058;-66
2021/08/03 07:05:27;;;;;;;0.50;0.30;;;16.10;99.90;;;;;;4980493;28;20038;-63
2021/08/03 07:07:58;;;;;;;0.88;0.75;;;16.10;99.90;;;;;;4984426;28;20042;-66
2021/08/03 07:10:26;;;;;;;0.43;0.25;;;16.10;99.90;;;;;;4979524;28;20038;-65
2021/08/03 07:12:54;;;;;;;0.60;0.30;;;16.10;99.90;;;;;;4983903;28;20112;-65
2021/08/03 07:15:25;;;;;;;0.52;0.20;;;16.10;99.90;;;;;;4980203;28;20404;-64
2021/08/03 07:17:54;;;;;;;0.50;0.50;;;16.10;99.90;;;;;;4982213;28;20122;-64
2021/08/03 07:20:22;;;;;;;1.17;0.40;;;16.10;99.90;;;;;;4980779;28;20046;-66
2021/08/03 07:22:50;;;;;;;1.13;0.50;;;16.10;99.90;;;;;;4977383;28;20094;-68
2021/08/03 07:25:18;;;;;;;0.52;0.28;;;16.10;99.90;;;;;;4973670;28;20050;-67
2021/08/03 07:27:45;;;;;;;0.30;0.20;;;16.10;99.90;;;;;;4982551;28;20043;-66
2021/08/03 07:30:12;;;;;;;0.55;0.32;;;16.20;99.90;;;;;;4981269;28;20042;-65
2021/08/03 07:32:39;;;;;;;0.98;0.43;;;16.30;99.90;;;;;;4980914;28;20058;-65
2021/08/03 07:35:07;;;;;;;3.08;0.70;;;16.30;99.90;;;;;;4983612;28;20133;-68
2021/08/03 07:37:35;;;;;;;0.47;0.40;;;16.30;99.90;;;;;;4979217;28;20079;-65
2021/08/03 07:40:03;;;;;;;1.55;0.40;;;16.40;99.90;;;;;;4983098;28;20443;-65
2021/08/03 07:42:30;;;;;;;0.88;0.30;;;16.40;99.90;;;;;;4980806;28;20062;-64
2021/08/03 07:44:57;;;;;;;0.52;0.43;;;16.50;99.90;;;;;;4983004;28;20132;-64
2021/08/03 07:47:24;;;;;;;0.90;0.60;;;16.60;99.90;;;;;;4981111;28;20041;-69
2021/08/03 07:49:51;;;;;;;0.52;0.22;;;16.70;99.90;;;;;;4983610;28;20381;-66
2021/08/03 07:52:20;;;;;;;0.73;0.60;;;16.70;99.90;;;;;;4981793;28;20126;-65
2021/08/03 07:54:48;;;;;;;2.20;0.52;;;16.80;99.90;;;;;;4982251;28;20072;-65
2021/08/03 07:57:15;;;;;;;0.30;0.30;;;16.90;99.90;;;;;;4983261;28;20039;-63
2021/08/03 07:59:42;;;;;;;0.60;0.30;;;17.00;99.90;;;;;;4983460;28;20057;-65
2021/08/03 08:02:09;;;;;;;0.55;0.55;;;17.00;99.90;;;;;;4983773;28;20049;-66
2021/08/03 08:04:36;;;;;;;0.55;0.28;;;17.00;99.90;;;;;;4979347;28;20038;-64
2021/08/03 08:07:03;;;;;;;0.22;0.20;;;17.00;99.90;;;;;;4982144;28;20039;-67
2021/08/03 08:09:30;;;;;;;0.65;0.40;;;17.00;99.90;;;;;;4984988;28;20046;-64
2021/08/03 08:11:58;;;;;;;1.40;0.40;;;16.90;99.90;;;;;;4981464;28;20400;-64
2021/08/03 08:14:24;;;;;;;0.50;0.30;;;17.00;99.90;;;;;;4980888;28;20053;-63
2021/08/03 08:16:51;;;;;;;0.75;0.60;;;17.00;99.90;;;;;;4979066;28;20700;-64
2021/08/03 08:19:18;;;;;;;0.90;0.60;;;17.00;99.90;;;;;;4971990;28;20043;-65
2021/08/03 08:21:45;;;;;;;0.30;0.25;;;17.00;99.90;;;;;;4972253;28;20169;-67
2021/08/03 08:24:12;;;;;;;0.30;0.30;;;17.00;99.90;;;;;;4983025;28;20113;-64
2021/08/03 08:26:39;;;;;;;0.82;0.50;;;17.00;99.90;;;;;;4983513;28;20092;-65
2021/08/03 08:29:06;;;;;;;0.32;0.30;;;17.00;99.90;;;;;;4983232;28;20502;-68
2021/08/03 08:31:34;;;;;;;0.47;0.30;;;17.00;99.90;;;;;;4980926;28;20049;-66
2021/08/03 08:34:01;;;;;;;0.47;0.47;;;17.10;99.90;;;;;;4984166;28;20664;-64
2021/08/03 08:36:28;;;;;;;0.63;0.50;;;17.10;99.90;;;;;;4980378;28;20046;-65
2021/08/03 08:38:56;;;;;;;0.60;0.30;;;17.20;99.90;;;;;;4981788;28;20043;-67
2021/08/03 08:41:23;;;;;;;2.67;1.23;;;17.20;99.90;;;;;;4982197;28;20109;-66
2021/08/03 08:43:51;;;;;;;1.42;0.40;;;17.20;99.90;;;;;;4983185;28;20054;-65
2021/08/03 08:46:18;;;;;;;0.63;0.38;;;17.30;99.90;;;;;;4980616;28;20377;-64
2021/08/03 08:48:46;;;;;;;0.80;0.68;;;17.40;99.90;;;;;;4979793;28;20038;-64
2021/08/03 08:51:14;;;;;;;0.35;0.30;;;17.40;99.90;;;;;;4968868;28;20054;-65
2021/08/03 08:53:41;;;;;;;0.73;0.73;;;17.40;99.90;;;;;;4983633;28;20050;-65
2021/08/03 08:56:07;;;;;;;0.77;0.40;;;17.40;99.90;;;;;;4979210;28;20089;-67
2021/08/03 08:58:35;;;;;;;0.52;0.47;;;17.40;99.90;;;;;;4981693;28;20140;-67
2021/08/03 09:01:04;;;;;;;1.23;0.40;;;17.40;99.90;;;;;;4982648;28;20053;-65
2021/08/03 09:03:31;;;;;;;0.52;0.52;;;17.30;99.90;;;;;;4982718;28;20042;-68
2021/08/03 09:06:05;;;;;;;0.63;0.30;;;17.40;99.90;;;;;;4982602;28;20062;-64
2021/08/03 09:08:36;;;;;;;0.38;0.38;;;17.50;99.90;;;;;;4978743;28;20420;-64
2021/08/03 09:11:22;;;;;;;0.47;0.43;;;17.50;99.90;;;;;;4976373;28;20041;-72
2021/08/03 09:13:51;;;;;;;2.72;0.70;;;17.50;99.90;;;;;;4983199;28;20473;-68
2021/08/03 09:16:19;;;;;;;2.17;0.50;;;17.50;99.90;;;;;;4980407;28;20156;-70
2021/08/03 09:18:48;;;;;;;1.98;0.45;;;17.60;99.90;;;;;;4986810;28;20114;-64
2021/08/03 09:21:32;;;;;;;0.30;0.20;;;17.60;99.90;;;;;;4984195;28;20046;-67
2021/08/03 09:24:03;;;;;;;0.40;0.30;;;17.60;99.90;;;;;;4981224;28;20126;-64
2021/08/03 09:26:39;;;;;;;0.30;0.20;;;17.70;99.90;;;;;;4982643;28;21086;-66
2021/08/03 09:29:11;;;;;;;0.77;0.25;;;17.50;99.90;;;;;;4985733;28;20042;-68
2021/08/03 09:31:40;;;;;;;0.80;0.50;;;17.60;99.90;;;;;;4986909;28;20042;-67
2021/08/03 09:34:14;;;;;;;0.52;0.50;;;17.60;99.90;;;;;;4983515;28;20043;-67
2021/08/03 09:36:59;;;;;;;0.91;0.31;;;17.70;99.90;;;;;;4419419;28;10001205;-67
2021/08/03 09:39:48;;;;;;;1.70;0.82;;;17.80;99.90;;;;;;1374092;28;10001997;-64
2021/08/03 09:42:20;;;;;;;1.63;0.50;;;17.70;99.90;;;;;;4981777;28;20162;-66
2021/08/03 09:44:58;;;;;;;0.63;0.38;;;17.60;99.90;;;;;;4985866;28;20050;-65
2021/08/03 09:47:32;;;;;;;0.35;0.30;;;17.60;99.90;;;;;;4982493;28;20468;-64
2021/08/03 09:50:02;;;;;;;0.60;0.40;;;17.50;99.90;;;;;;4985289;28;20424;-65
2021/08/03 09:52:33;;;;;;;1.13;0.43;;;17.70;99.90;;;;;;4982407;28;20047;-66
2021/08/03 09:55:17;;;;;;;0.47;0.47;;;17.70;99.90;;;;;;4987074;28;20035;-70
2021/08/03 09:57:46;;;;;;;0.40;0.40;;;17.60;99.90;;;;;;4984789;28;20573;-65
2021/08/03 10:00:37;;;;;;;0.50;0.40;;;17.60;99.90;;;;;;4982039;28;20046;-66
2021/08/03 10:03:05;;;;;;;0.40;0.30;;;17.60;99.90;;;;;;4974342;28;20045;-68
2021/08/03 10:05:34;;;;;;;0.90;0.73;;;17.70;99.90;;;;;;4984858;28;20047;-69
2021/08/03 10:08:02;;;;;;;0.70;0.45;;;17.70;99.90;;;;;;4980260;28;20062;-69
2021/08/03 10:10:29;;;;;;;0.80;0.40;;;17.70;99.90;;;;;;4981026;28;20101;-65
2021/08/03 10:12:56;;;;;;;0.32;0.20;;;17.70;99.90;;;;;;4983577;28;20431;-68
2021/08/03 10:15:24;;;;;;;1.70;1.02;;;17.80;99.90;;;;;;4984584;28;20046;-65
2021/08/03 10:17:51;;;;;;;0.30;0.30;;;17.90;99.90;;;;;;4984958;28;20062;-65
2021/08/03 10:20:17;;;;;;;0.77;0.30;;;18.10;99.90;;;;;;4984023;28;20120;-69
2021/08/03 10:22:56;;;;;;;0.35;0.30;;;18.20;99.90;;;;;;4984023;28;20062;-67
2021/08/03 10:25:31;;;;;;;0.43;0.43;;;18.20;99.90;;;;;;4982685;28;20055;-66
2021/08/03 10:27:58;;;;;;;0.63;0.40;;;18.30;99.90;;;;;;4983700;28;20047;-64
2021/08/03 10:30:28;;;;;;;1.33;0.40;;;18.40;99.90;;;;;;4982303;28;20069;-67
2021/08/03 10:33:00;;;;;;;0.25;0.25;;;18.60;99.90;;;;;;4984444;28;20118;-66
2021/08/03 10:35:43;;;;;;;0.80;0.65;;;18.50;99.90;;;;;;4983640;28;20058;-63
2021/08/03 10:38:15;;;;;;;0.35;0.30;;;18.70;99.90;;;;;;4983888;28;20718;-71
2021/08/03 10:40:48;;;;;;;0.73;0.73;;;18.80;99.90;;;;;;4982443;28;20058;-67
2021/08/03 10:43:21;;;;;;;1.85;0.50;;;18.90;99.90;;;;;;4983940;28;20043;-65
2021/08/03 10:46:09;;;;;;;0.50;0.38;;;18.80;99.90;;;;;;4981909;28;20142;-65
2021/08/03 10:48:39;;;;;;;0.50;0.32;;;18.60;99.90;;;;;;4983735;28;20050;-66
2021/08/03 10:51:15;;;;;;;0.40;0.30;;;18.60;99.90;;;;;;4982682;28;20492;-68
2021/08/03 10:53:51;;;;;;;0.43;0.38;;;18.60;99.90;;;;;;4984555;28;20053;-64
2021/08/03 10:56:19;;;;;;;0.20;0.20;;;18.80;99.90;;;;;;4982742;28;20133;-65
2021/08/03 10:58:46;;;;;;;0.20;0.20;;;18.90;99.90;;;;;;4980828;28;20132;-66
2021/08/03 11:01:43;;;;;;;0.30;0.30;;;19.00;99.90;;;;;;4979442;28;20046;-66
2021/08/03 11:04:42;;;;;;;0.15;0.15;;;19.10;99.90;;;;;;4956765;28;20027;-67
2021/08/03 11:07:25;;;;;;;0.63;0.40;;;19.10;99.70;;;;;;4977319;28;20449;-64
2021/08/03 11:09:57;;;;;;;0.20;0.20;;;19.00;99.90;;;;;;4983112;28;20734;-65
2021/08/03 11:12:51;;;;;;;0.50;0.43;;;19.10;99.70;;;;;;4979275;28;20089;-67
2021/08/03 11:15:39;;;;;;;0.43;0.43;;;19.00;99.90;;;;;;4982982;28;20097;-62
2021/08/03 11:18:09;;;;;;;0.35;0.30;;;19.10;98.50;;;;;;4981958;28;20038;-69
2021/08/03 11:20:36;;;;;;;0.65;0.30;;;19.20;98.40;;;;;;4982495;28;20034;-64
2021/08/03 11:23:13;;;;;;;1.75;1.00;;;18.90;97.60;;;;;;4982431;28;20055;-68
2021/08/03 11:25:42;;;;;;;0.40;0.40;;;19.00;98.70;;;;;;4982995;28;20124;-66
2021/08/03 11:28:16;;;;;;;0.43;0.38;;;19.00;98.30;;;;;;4981250;28;20476;-67
2021/08/03 11:30:46;;;;;;;0.43;0.30;;;19.10;98.30;;;;;;4978526;28;20132;-70
2021/08/03 11:33:15;;;;;;;0.40;0.40;;;19.10;97.40;;;;;;4983747;28;20069;-66
2021/08/03 11:35:42;;;;;;;0.50;0.43;;;19.20;97.70;;;;;;4982326;28;20471;-66
2021/08/03 11:38:17;;;;;;;1.27;0.20;;;19.10;97.00;;;;;;4983067;28;20050;-65
2021/08/03 11:40:44;;;;;;;0.40;0.35;;;19.10;97.10;;;;;;4982529;28;20073;-65
2021/08/03 11:43:11;;;;;;;2.20;0.30;;;19.00;96.50;;;;;;4981107;28;20740;-66
2021/08/03 11:45:40;;;;;;;0.45;0.30;;;19.00;95.40;;;;;;4982846;28;20476;-65
2021/08/03 11:48:23;;;;;;;0.40;0.40;;;19.00;95.80;;;;;;4981291;28;20671;-68
2021/08/03 11:50:50;;;;;;;0.10;0.10;;;19.00;95.80;;;;;;4979897;28;20058;-65
2021/08/03 11:53:20;;;;;;;0.35;0.35;;;19.00;96.60;;;;;;4981267;28;20452;-64
2021/08/03 11:55:49;;;;;;;0.45;0.45;;;19.20;96.30;;;;;;4980530;28;20050;-66
2021/08/03 11:58:25;;;;;;;0.30;0.20;;;19.30;97.20;;;;;;4978792;28;20504;-66
2021/08/03 12:00:57;;;;;;;0.82;0.40;;;19.40;96.40;;;;;;4977929;28;20378;-67
2021/08/03 12:03:32;;;;;;;1.80;0.60;;;19.50;95.30;;;;;;4971716;28;20038;-67
2021/08/03 12:06:01;;;;;;;0.70;0.30;;;19.40;94.00;;;;;;4983374;28;20065;-65
2021/08/03 12:08:36;;;;;;;0.50;0.40;;;19.50;95.70;;;;;;4980498;28;20070;-65
2021/08/03 12:11:05;;;;;;;0.40;0.30;;;19.50;95.30;;;;;;4979779;28;20117;-65
2021/08/03 12:13:35;;;;;;;0.82;0.25;;;19.50;94.30;;;;;;4982838;28;20054;-65
2021/08/03 12:16:06;;;;;;;0.30;0.25;;;19.70;95.50;;;;;;4978784;28;20050;-66
2021/08/03 12:18:41;;;;;;;1.48;0.50;;;19.60;95.00;;;;;;4981890;28;20044;-66
2021/08/03 12:21:09;;;;;;;0.85;0.20;;;19.60;95.20;;;;;;4981890;28;20058;-71
2021/08/03 12:23:39;;;;;;;0.77;0.55;;;19.60;94.00;;;;;;4981409;28;20460;-73
2021/08/03 12:26:07;;;;;;;0.30;0.20;;;19.60;93.10;;;;;;4977429;28;20102;-67
2021/08/03 12:28:37;;;;;;;0.77;0.30;;;19.70;95.10;;;;;;4979337;28;20434;-71
2021/08/03 12:31:38;;;;;;;1.55;0.20;;;19.80;95.10;;;;;;4983244;28;20046;-67
2021/08/03 12:34:06;;;;;;;0.47;0.20;;;19.60;95.30;;;;;;4975918;28;20165;-72
2021/08/03 12:36:48;;;;;;;0.30;0.30;;;19.70;95.10;;;;;;4979026;28;20042;-70
2021/08/03 12:39:23;;;;;;;2.00;0.40;;;19.80;94.30;;;;;;4978798;28;20054;-65
2021/08/03 12:42:10;;;;;;;0.20;0.20;;;19.60;94.00;;;;;;4977696;28;20122;-67
2021/08/03 12:44:40;;;;;;;0.50;0.40;;;19.60;93.40;;;;;;4980939;28;20038;-65
2021/08/03 12:47:12;;;;;;;0.10;0.10;;;19.60;94.20;;;;;;4980634;28;20034;-68
2021/08/03 12:49:42;;;;;;;0.30;0.30;;;19.80;93.00;;;;;;4984146;28;20051;-64
2021/08/03 12:52:14;;;;;;;0.98;0.40;;;19.80;93.30;;;;;;4982034;28;20510;-64
2021/08/03 12:55:03;;;;;;;0.90;0.47;;;19.70;92.60;;;;;;4986354;28;20042;-64
2021/08/03 12:57:51;;;;;;;0.32;0.32;;;19.60;91.60;;;;;;4985507;28;20030;-67
2021/08/03 13:00:36;;;;;;;2.15;0.45;;;19.40;92.20;;;;;;4987129;28;20061;-65
2021/08/03 13:03:07;;;;;;;0.20;0.20;;;19.60;92.10;;;;;;4985691;28;20053;-68
2021/08/03 13:05:35;;;;;;;0.43;0.30;;;19.70;92.50;;;;;;4984274;28;20069;-65
2021/08/03 13:08:03;;;;;;;1.35;0.52;;;19.60;93.50;;;;;;4984221;28;20052;-68
2021/08/03 13:10:30;;;;;;;0.73;0.32;;;19.80;93.50;;;;;;4980684;28;20080;-68